sensor_id;sensor_type;location;lat;lon;timestamp;temperature;humidity
8736;DHT22;4404;49.308;12.178;2022-12-05T00:05:38;6.50;99.90
8736;DHT22;4404;49.308;12.178;2022-12-05T00:11:43;6.50;99.90
8736;DHT22;4404;49.308;12.178;2022-12-05T00:17:46;6.50;99.90
8736;DHT22;4404;49.308;12.178;2022-12-05T00:23:49;6.40;99.90
8736;DHT22;4404;49.308;12.178;2022-12-05T00:29:53;6.40;99.90
8736;DHT22;4404;49.308;12.178;2022-12-05T00:36:00;6.40;99.90
8736;DHT22;4404;49.308;12.178;2022-12-05T00:42:03;6.40;99.90
8736;DHT22;4404;49.308;12.178;2022-12-05T00:48:07;6.40;99.90
8736;DHT22;4404;49.308;12.178;2022-12-05T00:54:13;6.50;99.90
8736;DHT22;4404;49.308;12.178;2022-12-05T01:00:17;6.50;99.90
8736;DHT22;4404;49.308;12.178;2022-12-05T01:06:24;6.50;99.90
8736;DHT22;4404;49.308;12.178;2022-12-05T01:12:27;6.50;99.90
8736;DHT22;4404;49.308;12.178;2022-12-05T01:18:31;6.50;99.90
8736;DHT22;4404;49.308;12.178;2022-12-05T01:24:35;6.50;99.90
8736;DHT22;4404;49.308;12.178;2022-12-05T01:30:39;6.50;99.90
8736;DHT22;4404;49.308;12.178;2022-12-05T01:36:42;6.50;99.90
8736;DHT22;4404;49.308;12.178;2022-12-05T01:42:46;6.50;99.90
8736;DHT22;4404;49.308;12.178;2022-12-05T01:48:50;6.50;99.90
8736;DHT22;4404;49.308;12.178;2022-12-05T01:54:55;6.50;99.90
8736;DHT22;4404;49.308;12.178;2022-12-05T02:01:01;6.40;99.90
8736;DHT22;4404;49.308;12.178;2022-12-05T02:07:03;6.40;99.90
8736;DHT22;4404;49.308;12.178;2022-12-05T02:13:19;6.30;99.90
8736;DHT22;4404;49.308;12.178;2022-12-05T02:20:04;6.40;99.90
8736;DHT22;4404;49.308;12.178;2022-12-05T02:26:33;6.40;99.90
8736;DHT22;4404;49.308;12.178;2022-12-05T02:33:09;6.40;99.90
8736;DHT22;4404;49.308;12.178;2022-12-05T02:39:21;6.40;99.90
8736;DHT22;4404;49.308;12.178;2022-12-05T02:45:30;6.40;99.90
8736;DHT22;4404;49.308;12.178;2022-12-05T02:51:40;6.40;99.90
8736;DHT22;4404;49.308;12.178;2022-12-05T02:57:47;6.40;99.90
8736;DHT22;4404;49.308;12.178;2022-12-05T03:03:52;6.40;99.90
8736;DHT22;4404;49.308;12.178;2022-12-05T03:10:01;6.30;99.90
8736;DHT22;4404;49.308;12.178;2022-12-05T03:16:09;6.20;99.90
8736;DHT22;4404;49.308;12.178;2022-12-05T03:22:18;6.20;99.90
8736;DHT22;4404;49.308;12.178;2022-12-05T03:28:30;6.10;99.90
8736;DHT22;4404;49.308;12.178;2022-12-05T03:34:47;6.00;99.90
8736;DHT22;4404;49.308;12.178;2022-12-05T03:40:55;5.90;99.90
8736;DHT22;4404;49.308;12.178;2022-12-05T03:47:11;5.90;99.90
8736;DHT22;4404;49.308;12.178;2022-12-05T03:53:18;5.80;99.90
8736;DHT22;4404;49.308;12.178;2022-12-05T03:59:27;5.80;99.90
8736;DHT22;4404;49.308;12.178;2022-12-05T04:05:39;5.70;99.90
8736;DHT22;4404;49.308;12.178;2022-12-05T04:11:47;5.60;99.90
8736;DHT22;4404;49.308;12.178;2022-12-05T04:17:57;5.50;99.90
8736;DHT22;4404;49.308;12.178;2022-12-05T04:24:02;5.50;99.90
8736;DHT22;4404;49.308;12.178;2022-12-05T04:30:36;5.60;99.90
8736;DHT22;4404;49.308;12.178;2022-12-05T04:36:42;5.60;99.90
8736;DHT22;4404;49.308;12.178;2022-12-05T04:42:50;5.50;99.90
8736;DHT22;4404;49.308;12.178;2022-12-05T04:48:57;5.50;99.90
8736;DHT22;4404;49.308;12.178;2022-12-05T04:55:06;5.50;99.90
8736;DHT22;4404;49.308;12.178;2022-12-05T05:01:16;5.50;99.90
8736;DHT22;4404;49.308;12.178;2022-12-05T05:07:20;5.60;99.90
8736;DHT22;4404;49.308;12.178;2022-12-05T05:13:23;5.70;99.90
8736;DHT22;4404;49.308;12.178;2022-12-05T05:19:27;5.70;99.90
8736;DHT22;4404;49.308;12.178;2022-12-05T05:25:30;5.70;99.90
8736;DHT22;4404;49.308;12.178;2022-12-05T05:31:32;5.70;99.90
8736;DHT22;4404;49.308;12.178;2022-12-05T05:37:36;5.60;99.90
8736;DHT22;4404;49.308;12.178;2022-12-05T05:43:39;5.60;99.90
8736;DHT22;4404;49.308;12.178;2022-12-05T05:49:41;5.70;99.90
8736;DHT22;4404;49.308;12.178;2022-12-05T05:55:46;5.70;99.90
8736;DHT22;4404;49.308;12.178;2022-12-05T06:01:48;5.80;99.90
8736;DHT22;4404;49.308;12.178;2022-12-05T06:07:51;5.80;99.90
8736;DHT22;4404;49.308;12.178;2022-12-05T06:13:56;5.80;99.90
8736;DHT22;4404;49.308;12.178;2022-12-05T06:20:00;5.80;99.90
8736;DHT22;4404;49.308;12.178;2022-12-05T06:26:04;5.80;99.90
8736;DHT22;4404;49.308;12.178;2022-12-05T06:32:09;5.70;99.90
8736;DHT22;4404;49.308;12.178;2022-12-05T06:38:11;5.60;99.90
8736;DHT22;4404;49.308;12.178;2022-12-05T06:44:14;5.50;99.90
8736;DHT22;4404;49.308;12.178;2022-12-05T06:50:18;5.60;99.90
8736;DHT22;4404;49.308;12.178;2022-12-05T06:56:20;5.60;99.90
8736;DHT22;4404;49.308;12.178;2022-12-05T07:02:23;5.60;99.90
8736;DHT22;4404;49.308;12.178;2022-12-05T07:08:27;5.60;99.90
8736;DHT22;4404;49.308;12.178;2022-12-05T07:14:29;5.70;99.90
8736;DHT22;4404;49.308;12.178;2022-12-05T07:20:31;5.60;99.90
8736;DHT22;4404;49.308;12.178;2022-12-05T07:26:35;5.50;99.90
8736;DHT22;4404;49.308;12.178;2022-12-05T07:32:38;5.40;99.90
8736;DHT22;4404;49.308;12.178;2022-12-05T07:38:41;5.30;99.90
8736;DHT22;4404;49.308;12.178;2022-12-05T07:44:48;5.30;99.90
8736;DHT22;4404;49.308;12.178;2022-12-05T07:50:53;5.20;99.90
8736;DHT22;4404;49.308;12.178;2022-12-05T07:56:55;5.20;99.90
8736;DHT22;4404;49.308;12.178;2022-12-05T08:03:00;5.20;99.90
8736;DHT22;4404;49.308;12.178;2022-12-05T08:09:03;5.20;99.90
8736;DHT22;4404;49.308;12.178;2022-12-05T08:15:09;5.20;99.90
8736;DHT22;4404;49.308;12.178;2022-12-05T08:21:15;5.10;99.90
8736;DHT22;4404;49.308;12.178;2022-12-05T08:27:19;4.90;99.90
8736;DHT22;4404;49.308;12.178;2022-12-05T08:33:21;4.70;99.90
8736;DHT22;4404;49.308;12.178;2022-12-05T08:39:25;4.60;99.90
8736;DHT22;4404;49.308;12.178;2022-12-05T08:45:27;4.60;99.90
8736;DHT22;4404;49.308;12.178;2022-12-05T08:51:30;4.60;99.90
8736;DHT22;4404;49.308;12.178;2022-12-05T08:57:34;4.60;99.90
8736;DHT22;4404;49.308;12.178;2022-12-05T09:03:37;4.70;99.90
8736;DHT22;4404;49.308;12.178;2022-12-05T09:09:39;4.80;99.90
8736;DHT22;4404;49.308;12.178;2022-12-05T09:15:43;4.90;99.90
8736;DHT22;4404;49.308;12.178;2022-12-05T09:21:47;4.90;99.90
8736;DHT22;4404;49.308;12.178;2022-12-05T09:27:49;4.90;99.90
8736;DHT22;4404;49.308;12.178;2022-12-05T09:33:56;4.90;99.90
8736;DHT22;4404;49.308;12.178;2022-12-05T09:40:14;4.80;99.90
8736;DHT22;4404;49.308;12.178;2022-12-05T09:46:25;4.80;99.90
8736;DHT22;4404;49.308;12.178;2022-12-05T09:52:38;4.80;99.90
8736;DHT22;4404;49.308;12.178;2022-12-05T09:58:44;5.00;99.90
8736;DHT22;4404;49.308;12.178;2022-12-05T10:04:54;5.00;99.90
8736;DHT22;4404;49.308;12.178;2022-12-05T10:11:07;5.00;99.90
8736;DHT22;4404;49.308;12.178;2022-12-05T10:17:21;5.10;99.90
8736;DHT22;4404;49.308;12.178;2022-12-05T10:23:30;5.20;99.90
8736;DHT22;4404;49.308;12.178;2022-12-05T10:29:43;5.30;99.90
8736;DHT22;4404;49.308;12.178;2022-12-05T10:35:48;5.40;99.90
8736;DHT22;4404;49.308;12.178;2022-12-05T10:41:54;5.40;99.90
8736;DHT22;4404;49.308;12.178;2022-12-05T10:47:58;5.40;99.90
8736;DHT22;4404;49.308;12.178;2022-12-05T10:54:00;5.40;99.90
8736;DHT22;4404;49.308;12.178;2022-12-05T11:00:11;5.40;99.90
8736;DHT22;4404;49.308;12.178;2022-12-05T11:06:21;5.50;99.90
8736;DHT22;4404;49.308;12.178;2022-12-05T11:12:28;5.50;99.90
8736;DHT22;4404;49.308;12.178;2022-12-05T11:18:38;5.50;99.90
8736;DHT22;4404;49.308;12.178;2022-12-05T11:24:43;5.50;99.90
8736;DHT22;4404;49.308;12.178;2022-12-05T11:30:55;5.40;99.90
8736;DHT22;4404;49.308;12.178;2022-12-05T11:37:03;5.40;99.90
8736;DHT22;4404;49.308;12.178;2022-12-05T11:43:33;5.10;99.90
8736;DHT22;4404;49.308;12.178;2022-12-05T11:50:10;5.00;99.90
8736;DHT22;4404;49.308;12.178;2022-12-05T11:56:30;5.00;99.90
8736;DHT22;4404;49.308;12.178;2022-12-05T12:02:49;5.00;99.90
8736;DHT22;4404;49.308;12.178;2022-12-05T12:09:19;5.10;99.90
8736;DHT22;4404;49.308;12.178;2022-12-05T12:15:44;5.10;99.90
8736;DHT22;4404;49.308;12.178;2022-12-05T12:22:06;4.90;99.90
8736;DHT22;4404;49.308;12.178;2022-12-05T12:28:29;4.70;99.90
8736;DHT22;4404;49.308;12.178;2022-12-05T12:34:57;4.60;99.90
8736;DHT22;4404;49.308;12.178;2022-12-05T12:41:31;4.60;99.90
8736;DHT22;4404;49.308;12.178;2022-12-05T12:48:17;4.60;99.90
8736;DHT22;4404;49.308;12.178;2022-12-05T12:54:38;4.60;99.90
8736;DHT22;4404;49.308;12.178;2022-12-05T13:01:01;4.60;99.90
8736;DHT22;4404;49.308;12.178;2022-12-05T13:07:11;4.60;99.90
8736;DHT22;4404;49.308;12.178;2022-12-05T13:13:18;4.70;99.90
8736;DHT22;4404;49.308;12.178;2022-12-05T13:19:27;4.60;99.90
8736;DHT22;4404;49.308;12.178;2022-12-05T13:25:33;4.70;99.90
8736;DHT22;4404;49.308;12.178;2022-12-05T13:31:40;4.60;99.90
8736;DHT22;4404;49.308;12.178;2022-12-05T13:37:48;4.80;99.90
8736;DHT22;4404;49.308;12.178;2022-12-05T13:44:08;4.90;99.90
8736;DHT22;4404;49.308;12.178;2022-12-05T13:50:18;4.80;99.90
8736;DHT22;4404;49.308;12.178;2022-12-05T13:56:29;4.80;99.90
8736;DHT22;4404;49.308;12.178;2022-12-05T14:02:51;4.90;99.90
8736;DHT22;4404;49.308;12.178;2022-12-05T14:08:54;4.90;99.90
8736;DHT22;4404;49.308;12.178;2022-12-05T14:15:01;4.90;99.90
8736;DHT22;4404;49.308;12.178;2022-12-05T14:21:07;5.00;99.90
8736;DHT22;4404;49.308;12.178;2022-12-05T14:27:19;5.00;99.90
8736;DHT22;4404;49.308;12.178;2022-12-05T14:33:28;5.00;99.90
8736;DHT22;4404;49.308;12.178;2022-12-05T14:39:39;5.10;99.90
8736;DHT22;4404;49.308;12.178;2022-12-05T14:45:54;5.10;99.90
8736;DHT22;4404;49.308;12.178;2022-12-05T14:52:09;5.20;99.90
8736;DHT22;4404;49.308;12.178;2022-12-05T14:58:16;5.20;99.90
8736;DHT22;4404;49.308;12.178;2022-12-05T15:04:34;5.20;99.90
8736;DHT22;4404;49.308;12.178;2022-12-05T15:10:41;5.20;99.90
8736;DHT22;4404;49.308;12.178;2022-12-05T15:16:49;5.20;99.90
8736;DHT22;4404;49.308;12.178;2022-12-05T15:22:53;5.20;99.90
8736;DHT22;4404;49.308;12.178;2022-12-05T15:29:05;5.30;99.90
8736;DHT22;4404;49.308;12.178;2022-12-05T15:35:09;5.30;99.90
8736;DHT22;4404;49.308;12.178;2022-12-05T15:41:15;5.30;99.90
8736;DHT22;4404;49.308;12.178;2022-12-05T15:47:22;5.30;99.90
8736;DHT22;4404;49.308;12.178;2022-12-05T15:53:30;5.30;99.90
8736;DHT22;4404;49.308;12.178;2022-12-05T15:59:38;5.30;99.90
8736;DHT22;4404;49.308;12.178;2022-12-05T16:05:49;5.20;99.90
8736;DHT22;4404;49.308;12.178;2022-12-05T16:11:55;5.10;99.90
8736;DHT22;4404;49.308;12.178;2022-12-05T16:18:01;5.10;99.90
8736;DHT22;4404;49.308;12.178;2022-12-05T16:24:15;5.00;99.90
8736;DHT22;4404;49.308;12.178;2022-12-05T16:30:20;5.00;99.90
8736;DHT22;4404;49.308;12.178;2022-12-05T16:36:24;5.10;99.90
8736;DHT22;4404;49.308;12.178;2022-12-05T16:42:28;5.10;99.90
8736;DHT22;4404;49.308;12.178;2022-12-05T16:48:31;5.20;99.90
8736;DHT22;4404;49.308;12.178;2022-12-05T16:54:34;5.20;99.90
8736;DHT22;4404;49.308;12.178;2022-12-05T17:00:38;5.30;99.90
8736;DHT22;4404;49.308;12.178;2022-12-05T17:06:40;5.30;99.90
8736;DHT22;4404;49.308;12.178;2022-12-05T17:12:43;5.30;99.90
8736;DHT22;4404;49.308;12.178;2022-12-05T17:18:49;5.30;99.90
8736;DHT22;4404;49.308;12.178;2022-12-05T17:24:52;5.30;99.90
8736;DHT22;4404;49.308;12.178;2022-12-05T17:30:54;5.40;99.90
8736;DHT22;4404;49.308;12.178;2022-12-05T17:36:58;5.40;99.90
8736;DHT22;4404;49.308;12.178;2022-12-05T17:43:03;5.40;99.90
8736;DHT22;4404;49.308;12.178;2022-12-05T17:49:05;5.40;99.90
8736;DHT22;4404;49.308;12.178;2022-12-05T17:55:15;5.30;99.90
8736;DHT22;4404;49.308;12.178;2022-12-05T18:01:19;5.30;99.90
8736;DHT22;4404;49.308;12.178;2022-12-05T18:07:21;5.30;99.90
8736;DHT22;4404;49.308;12.178;2022-12-05T18:13:25;5.30;99.90
8736;DHT22;4404;49.308;12.178;2022-12-05T18:19:28;5.40;99.90
8736;DHT22;4404;49.308;12.178;2022-12-05T18:25:30;5.30;99.90
8736;DHT22;4404;49.308;12.178;2022-12-05T18:31:34;5.30;99.90
8736;DHT22;4404;49.308;12.178;2022-12-05T18:37:38;5.20;99.90
8736;DHT22;4404;49.308;12.178;2022-12-05T18:43:42;5.30;99.90
8736;DHT22;4404;49.308;12.178;2022-12-05T18:49:46;5.20;99.90
8736;DHT22;4404;49.308;12.178;2022-12-05T18:55:48;5.20;99.90
8736;DHT22;4404;49.308;12.178;2022-12-05T19:01:51;5.20;99.90
8736;DHT22;4404;49.308;12.178;2022-12-05T19:07:54;5.20;99.90
8736;DHT22;4404;49.308;12.178;2022-12-05T19:13:58;5.30;99.90
8736;DHT22;4404;49.308;12.178;2022-12-05T19:20:01;5.30;99.90
8736;DHT22;4404;49.308;12.178;2022-12-05T19:26:08;5.40;99.90
8736;DHT22;4404;49.308;12.178;2022-12-05T19:32:14;5.30;99.90
8736;DHT22;4404;49.308;12.178;2022-12-05T19:38:17;5.40;99.90
8736;DHT22;4404;49.308;12.178;2022-12-05T19:44:21;5.40;99.90
8736;DHT22;4404;49.308;12.178;2022-12-05T19:50:23;5.40;99.90
8736;DHT22;4404;49.308;12.178;2022-12-05T19:56:27;5.50;99.90
8736;DHT22;4404;49.308;12.178;2022-12-05T20:02:32;5.50;99.90
8736;DHT22;4404;49.308;12.178;2022-12-05T20:08:35;5.60;99.90
8736;DHT22;4404;49.308;12.178;2022-12-05T20:14:42;5.60;99.90
8736;DHT22;4404;49.308;12.178;2022-12-05T20:20:55;5.50;99.90
8736;DHT22;4404;49.308;12.178;2022-12-05T20:26:58;5.60;99.90
8736;DHT22;4404;49.308;12.178;2022-12-05T20:33:02;5.60;99.90
8736;DHT22;4404;49.308;12.178;2022-12-05T20:39:09;5.60;99.90
8736;DHT22;4404;49.308;12.178;2022-12-05T20:45:14;5.60;99.90
8736;DHT22;4404;49.308;12.178;2022-12-05T20:51:18;5.60;99.90
8736;DHT22;4404;49.308;12.178;2022-12-05T20:57:23;5.60;99.90
8736;DHT22;4404;49.308;12.178;2022-12-05T21:03:27;5.60;99.90
8736;DHT22;4404;49.308;12.178;2022-12-05T21:09:29;5.60;99.90
8736;DHT22;4404;49.308;12.178;2022-12-05T21:15:36;5.60;99.90
8736;DHT22;4404;49.308;12.178;2022-12-05T21:21:43;5.60;99.90
8736;DHT22;4404;49.308;12.178;2022-12-05T21:27:48;5.50;99.90
8736;DHT22;4404;49.308;12.178;2022-12-05T21:33:54;5.50;99.90
8736;DHT22;4404;49.308;12.178;2022-12-05T21:39:57;5.50;99.90
8736;DHT22;4404;49.308;12.178;2022-12-05T21:46:00;5.50;99.90
8736;DHT22;4404;49.308;12.178;2022-12-05T21:52:04;5.50;99.90
8736;DHT22;4404;49.308;12.178;2022-12-05T21:58:06;5.60;99.90
8736;DHT22;4404;49.308;12.178;2022-12-05T22:04:08;5.60;99.90
8736;DHT22;4404;49.308;12.178;2022-12-05T22:16:15;5.60;99.90
8736;DHT22;4404;49.308;12.178;2022-12-05T22:22:18;5.60;99.90
8736;DHT22;4404;49.308;12.178;2022-12-05T22:28:22;5.60;99.90
8736;DHT22;4404;49.308;12.178;2022-12-05T22:34:24;5.60;99.90
8736;DHT22;4404;49.308;12.178;2022-12-05T22:40:27;5.60;99.90
8736;DHT22;4404;49.308;12.178;2022-12-05T22:46:31;5.60;99.90
8736;DHT22;4404;49.308;12.178;2022-12-05T22:52:33;5.60;99.90
8736;DHT22;4404;49.308;12.178;2022-12-05T22:58:36;5.60;99.90
8736;DHT22;4404;49.308;12.178;2022-12-05T23:04:40;5.60;99.90
8736;DHT22;4404;49.308;12.178;2022-12-05T23:10:43;5.70;99.90
8736;DHT22;4404;49.308;12.178;2022-12-05T23:16:49;5.60;99.90
8736;DHT22;4404;49.308;12.178;2022-12-05T23:22:54;5.60;99.90
8736;DHT22;4404;49.308;12.178;2022-12-05T23:28:57;5.50;99.90
8736;DHT22;4404;49.308;12.178;2022-12-05T23:34:59;5.60;99.90
8736;DHT22;4404;49.308;12.178;2022-12-05T23:41:05;5.60;99.90
8736;DHT22;4404;49.308;12.178;2022-12-05T23:47:08;5.60;99.90
8736;DHT22;4404;49.308;12.178;2022-12-05T23:53:10;5.60;99.90
8736;DHT22;4404;49.308;12.178;2022-12-05T23:59:14;5.60;99.90
